createdAt,value
2022-10-30T00:00:47.278Z,99767.50
2022-10-30T00:03:15.128Z,99747.47
2022-10-30T00:05:46.846Z,99770.53
2022-10-30T00:08:15.932Z,99760.94
2022-10-30T00:10:44.991Z,99769.53
2022-10-30T00:13:12.704Z,99769.13
2022-10-30T00:15:39.429Z,99770.56
2022-10-30T00:18:06.369Z,99775.22
2022-10-30T00:20:33.120Z,99765.56
2022-10-30T00:23:00.381Z,99767.91
2022-10-30T00:25:27.309Z,99762.88
2022-10-30T00:27:53.993Z,99756.66
2022-10-30T00:30:20.739Z,99765.19
2022-10-30T00:32:47.474Z,99756.03
2022-10-30T00:35:14.351Z,99777.78
2022-10-30T00:37:41.083Z,99772.84
2022-10-30T00:40:12.975Z,99779.47
2022-10-30T00:42:39.720Z,99777.84
2022-10-30T00:45:07.007Z,99739.78
2022-10-30T00:47:33.672Z,99771.78
2022-10-30T00:50:06.239Z,99756.91
2022-10-30T00:52:37.618Z,99760.06
2022-10-30T00:55:10.127Z,99770.06
2022-10-30T00:57:38.473Z,99762.97
2022-10-30T01:00:06.881Z,99760.69
2022-10-30T01:02:34.119Z,99750.66
2022-10-30T01:05:02.493Z,99752.09
2022-10-30T01:07:29.239Z,99748.09
2022-10-30T01:09:56.081Z,99736.41
2022-10-30T01:12:22.851Z,99729.94
2022-10-30T01:14:56.462Z,99743.22
2022-10-30T01:18:17.661Z,99756.19
2022-10-30T01:21:02.433Z,99745.69
2022-10-30T01:23:46.536Z,99747.97
2022-10-30T01:26:25.404Z,99738.53
2022-10-30T01:29:19.982Z,99744.69
2022-10-30T01:32:24.094Z,99740.03
2022-10-30T01:35:11.512Z,99727.97
2022-10-30T01:37:48.861Z,99745.78
2022-10-30T01:40:18.941Z,99712.63
2022-10-30T01:42:50.222Z,99731.03
2022-10-30T01:45:41.844Z,99721.88
2022-10-30T01:48:33.461Z,99727.38
2022-10-30T01:51:23.144Z,99723.31
2022-10-30T01:53:52.445Z,99726.31
2022-10-30T01:56:45.501Z,99724.16
2022-10-30T01:59:48.213Z,99722.91
2022-10-30T02:02:15.264Z,99720.03
2022-10-30T02:04:42.541Z,99701.50
2022-10-30T02:07:11.581Z,99718.22
2022-10-30T02:09:39.853Z,99723.00
2022-10-30T02:12:08.290Z,99712.66
2022-10-30T02:14:43.822Z,99717.59
2022-10-30T02:17:11.812Z,99718.19
2022-10-30T02:19:38.550Z,99711.66
2022-10-30T02:22:05.750Z,99702.63
2022-10-30T02:24:33.309Z,99708.59
2022-10-30T02:27:00.188Z,99702.75
2022-10-30T02:29:26.935Z,99702.28
2022-10-30T02:31:53.942Z,99675.50
2022-10-30T02:34:20.976Z,99697.16
2022-10-30T02:36:47.783Z,99699.84
2022-10-30T02:39:14.467Z,99709.56
2022-10-30T02:41:41.205Z,99690.19
2022-10-30T02:44:07.917Z,99694.44
2022-10-30T02:46:35.071Z,99697.25
2022-10-30T02:49:02.920Z,99696.78
2022-10-30T02:51:32.277Z,99681.75
2022-10-30T02:54:01.812Z,99705.16
2022-10-30T02:56:28.637Z,99687.03
2022-10-30T02:58:56.479Z,99679.00
2022-10-30T03:01:23.414Z,99684.22
2022-10-30T03:03:50.214Z,99689.59
2022-10-30T03:06:17.533Z,99706.59
2022-10-30T03:08:44.390Z,99688.03
2022-10-30T03:11:16.642Z,99689.69
2022-10-30T03:13:44.900Z,99693.66
2022-10-30T03:16:17.210Z,99682.72
2022-10-30T03:18:44.057Z,99678.72
2022-10-30T03:21:13.791Z,99697.47
2022-10-30T03:23:40.474Z,99696.94
2022-10-30T03:26:07.480Z,99691.50
2022-10-30T03:28:34.452Z,99679.31
2022-10-30T03:31:05.711Z,99700.78
2022-10-30T03:33:33.004Z,99700.91
2022-10-30T03:36:00.532Z,99685.34
2022-10-30T03:38:27.807Z,99696.78
2022-10-30T03:40:54.662Z,99692.72
2022-10-30T03:43:21.643Z,99693.59
2022-10-30T03:45:53.941Z,99700.53
2022-10-30T03:48:23.372Z,99692.03
2022-10-30T03:50:52.792Z,99697.69
2022-10-30T03:53:19.525Z,99689.72
2022-10-30T03:55:46.265Z,99683.19
2022-10-30T03:58:13.026Z,99704.13
2022-10-30T04:00:39.732Z,99702.09
2022-10-30T04:03:08.343Z,99696.97
2022-10-30T04:05:35.926Z,99701.25
2022-10-30T04:08:05.557Z,99692.72
2022-10-30T04:10:32.217Z,99699.53
2022-10-30T04:13:07.636Z,99699.78
2022-10-30T04:15:34.715Z,99703.31
2022-10-30T04:18:01.974Z,99691.88
2022-10-30T04:20:29.920Z,99696.13
2022-10-30T04:23:01.665Z,99698.41
2022-10-30T04:25:29.460Z,99696.97
2022-10-30T04:27:56.947Z,99695.28
2022-10-30T04:30:25.651Z,99703.19
2022-10-30T04:32:57.466Z,99706.59
2022-10-30T04:35:27.253Z,99704.63
2022-10-30T04:37:59.776Z,99708.00
2022-10-30T04:40:29.361Z,99686.44
2022-10-30T04:42:56.890Z,99696.69
2022-10-30T04:45:23.931Z,99685.94
2022-10-30T04:47:50.700Z,99685.84
2022-10-30T04:50:18.371Z,99696.00
2022-10-30T04:52:45.217Z,99706.47
2022-10-30T04:55:12.062Z,99700.31
2022-10-30T04:57:38.900Z,99688.06
2022-10-30T05:00:07.488Z,99692.56
2022-10-30T05:02:37.455Z,99676.41
2022-10-30T05:05:04.666Z,99693.53
2022-10-30T05:07:31.623Z,99684.31
2022-10-30T05:09:58.500Z,99696.78
2022-10-30T05:12:25.234Z,99686.50
2022-10-30T05:14:51.995Z,99683.38
2022-10-30T05:17:18.819Z,99686.28
2022-10-30T05:19:45.588Z,99690.31
2022-10-30T05:22:13.013Z,99681.44
2022-10-30T05:24:39.845Z,99686.06
2022-10-30T05:27:06.561Z,99682.16
2022-10-30T05:29:33.333Z,99684.09
2022-10-30T05:32:00.105Z,99676.00
2022-10-30T05:34:26.933Z,99702.16
2022-10-30T05:36:53.613Z,99690.59
2022-10-30T05:39:20.326Z,99702.16
2022-10-30T05:41:47.068Z,99692.91
2022-10-30T05:44:13.779Z,99698.63
2022-10-30T05:46:41.023Z,99698.38
2022-10-30T05:49:07.863Z,99679.00
2022-10-30T05:51:37.960Z,99703.72
2022-10-30T05:54:07.226Z,99691.34
2022-10-30T05:56:34.022Z,99704.03
2022-10-30T05:59:00.771Z,99710.19
2022-10-30T06:01:27.628Z,99712.03
2022-10-30T06:03:54.490Z,99715.63
2022-10-30T06:06:21.334Z,99711.88
2022-10-30T06:08:48.114Z,99718.06
2022-10-30T06:11:15.072Z,99727.44
2022-10-30T06:13:41.783Z,99731.94
2022-10-30T06:16:08.586Z,99709.81
2022-10-30T06:18:35.303Z,99718.97
2022-10-30T06:21:02.042Z,99717.19
2022-10-30T06:23:28.790Z,99711.34
2022-10-30T06:25:55.506Z,99719.28
2022-10-30T06:28:22.822Z,99724.56
2022-10-30T06:30:49.578Z,99735.25
2022-10-30T06:33:16.271Z,99731.97
2022-10-30T06:35:43.042Z,99736.84
2022-10-30T06:38:12.076Z,99724.91
2022-10-30T06:40:38.941Z,99733.75
2022-10-30T06:43:05.653Z,99730.22
2022-10-30T06:45:32.410Z,99739.56
2022-10-30T06:48:02.229Z,99740.88
2022-10-30T06:50:29.231Z,99738.34
2022-10-30T06:52:56.102Z,99751.91
2022-10-30T06:55:22.890Z,99758.41
2022-10-30T06:57:57.492Z,99761.16
2022-10-30T07:00:24.651Z,99763.22
2022-10-30T07:02:59.514Z,99752.06
2022-10-30T07:05:26.818Z,99750.84
2022-10-30T07:07:56.323Z,99756.06
2022-10-30T07:10:23.385Z,99758.41
2022-10-30T07:12:55.310Z,99765.16
2022-10-30T07:15:22.665Z,99756.41
2022-10-30T07:17:58.657Z,99753.38
2022-10-30T07:20:28.765Z,99747.50
2022-10-30T07:22:55.520Z,99762.53
2022-10-30T07:25:22.294Z,99751.06
2022-10-30T07:27:51.191Z,99751.25
2022-10-30T07:30:20.764Z,99752.91
2022-10-30T07:32:56.513Z,99738.22
2022-10-30T07:35:23.471Z,99730.19
2022-10-30T07:37:50.130Z,99734.31
2022-10-30T07:40:17.065Z,99725.66
2022-10-30T07:42:43.855Z,99727.88
2022-10-30T07:47:43.880Z,99738.69
2022-10-30T07:50:11.698Z,99736.56
2022-10-30T07:52:38.841Z,99715.13
2022-10-30T07:55:06.160Z,99725.00
2022-10-30T07:57:41.004Z,99735.16
2022-10-30T08:00:13.136Z,99717.75
2022-10-30T08:02:40.396Z,99732.41
2022-10-30T08:05:08.464Z,99720.16
2022-10-30T08:07:37.548Z,99735.34
2022-10-30T08:10:05.915Z,99726.56
2022-10-30T08:12:34.537Z,99711.91
2022-10-30T08:15:01.694Z,99706.97
2022-10-30T08:17:28.837Z,99718.44
2022-10-30T08:19:57.269Z,99717.00
2022-10-30T08:22:24.655Z,99723.88
2022-10-30T08:24:51.672Z,99698.69
2022-10-30T08:27:18.421Z,99709.97
2022-10-30T08:29:45.219Z,99694.38
2022-10-30T08:32:11.956Z,99710.22
2022-10-30T08:34:38.777Z,99711.09
2022-10-30T08:37:06.011Z,99705.41
2022-10-30T08:39:32.682Z,99702.19
2022-10-30T08:42:00.274Z,99704.47
2022-10-30T08:44:27.403Z,99703.78
2022-10-30T08:46:54.326Z,99683.66
2022-10-30T08:49:21.085Z,99692.31
2022-10-30T08:51:47.857Z,99692.34
2022-10-30T08:54:14.804Z,99692.63
2022-10-30T08:56:41.590Z,99681.06
2022-10-30T08:59:08.392Z,99683.63
2022-10-30T09:01:36.961Z,99699.59
2022-10-30T09:04:04.178Z,99663.66
2022-10-30T09:06:32.159Z,99669.19
2022-10-30T09:08:59.548Z,99693.34
2022-10-30T09:11:26.346Z,99693.34
2022-10-30T09:13:53.349Z,99697.66
2022-10-30T09:16:20.276Z,99708.28
2022-10-30T09:18:47.134Z,99703.38
2022-10-30T09:21:14.068Z,99702.19
2022-10-30T09:23:43.496Z,99714.84
2022-10-30T09:26:12.715Z,99703.47
2022-10-30T09:28:41.275Z,99698.94
2022-10-30T09:31:08.021Z,99695.44
2022-10-30T09:33:34.867Z,99689.88
2022-10-30T09:36:03.403Z,99680.94
2022-10-30T09:38:30.381Z,99690.97
2022-10-30T09:41:17.064Z,99703.56
2022-10-30T09:44:08.295Z,99695.78
2022-10-30T09:47:03.192Z,99701.19
2022-10-30T09:49:48.607Z,99698.25
2022-10-30T09:52:26.614Z,99699.38
2022-10-30T09:55:09.273Z,99699.41
2022-10-30T09:58:04.034Z,99697.69
2022-10-30T10:00:52.424Z,99689.13
2022-10-30T10:03:56.450Z,99700.31
2022-10-30T10:06:25.143Z,99699.91
2022-10-30T10:08:55.624Z,99694.53
2022-10-30T10:11:30.963Z,99692.84
2022-10-30T10:14:08.706Z,99674.94
2022-10-30T10:16:40.373Z,99675.25
2022-10-30T10:19:33.535Z,99684.81
2022-10-30T10:22:02.777Z,99679.81
2022-10-30T10:24:38.924Z,99689.13
2022-10-30T10:27:08.891Z,99677.78
2022-10-30T10:29:37.999Z,99675.31
2022-10-30T10:32:21.892Z,99656.75
2022-10-30T10:35:10.181Z,99675.31
2022-10-30T10:37:45.929Z,99675.00
2022-10-30T10:40:26.548Z,99655.81
2022-10-30T10:43:12.500Z,99666.28
2022-10-30T10:45:42.216Z,99676.94
2022-10-30T10:48:30.790Z,99665.34
2022-10-30T10:51:18.204Z,99656.97
2022-10-30T10:53:44.965Z,99664.34
2022-10-30T10:56:13.034Z,99659.38
2022-10-30T10:58:51.745Z,99654.53
2022-10-30T11:01:24.893Z,99662.75
2022-10-30T11:04:03.260Z,99641.72
2022-10-30T11:06:36.199Z,99643.06
2022-10-30T11:09:14.402Z,99657.78
2022-10-30T11:11:41.276Z,99664.47
2022-10-30T11:14:31.734Z,99638.09
2022-10-30T11:17:23.590Z,99649.88
2022-10-30T11:19:54.906Z,99654.19
2022-10-30T11:22:29.440Z,99633.63
2022-10-30T11:24:56.281Z,99639.19
2022-10-30T11:27:28.742Z,99646.50
2022-10-30T11:29:59.931Z,99644.66
2022-10-30T11:32:29.556Z,99637.94
2022-10-30T11:35:10.002Z,99635.41
2022-10-30T11:37:39.624Z,99618.50
2022-10-30T11:40:12.579Z,99641.84
2022-10-30T11:42:47.712Z,99632.38
2022-10-30T11:45:37.896Z,99638.47
2022-10-30T11:48:13.719Z,99647.56
2022-10-30T11:50:47.773Z,99635.06
2022-10-30T11:53:24.974Z,99628.16
2022-10-30T11:55:52.001Z,99621.09
2022-10-30T11:58:28.203Z,99620.41
2022-10-30T12:01:08.011Z,99610.31
2022-10-30T12:03:38.812Z,99617.84
2022-10-30T12:06:17.331Z,99612.97
2022-10-30T12:09:25.433Z,99591.44
2022-10-30T12:11:52.257Z,99598.53
2022-10-30T12:14:24.602Z,99612.75
2022-10-30T12:16:53.657Z,99600.44
2022-10-30T12:19:22.681Z,99603.75
2022-10-30T12:21:53.835Z,99604.22
2022-10-30T12:24:35.977Z,99600.06
2022-10-30T12:27:19.698Z,99540.78
2022-10-30T12:30:12.437Z,99583.25
2022-10-30T12:32:45.800Z,99599.94
2022-10-30T12:35:27.945Z,99533.31
2022-10-30T12:43:27.895Z,99595.56
2022-10-30T12:46:21.024Z,99581.19
2022-10-30T12:48:59.393Z,99585.31
2022-10-30T12:51:32.131Z,99586.31
2022-10-30T12:54:02.812Z,99559.41
2022-10-30T12:56:40.915Z,99571.13
2022-10-30T12:59:26.434Z,99585.50
2022-10-30T13:02:00.656Z,99585.66
2022-10-30T13:04:34.611Z,99584.94
2022-10-30T13:07:13.407Z,99577.66
2022-10-30T13:09:47.100Z,99575.19
2022-10-30T13:12:22.501Z,99568.22
2022-10-30T13:15:03.172Z,99576.44
2022-10-30T13:17:30.146Z,99578.69
2022-10-30T13:19:56.868Z,99563.50
2022-10-30T13:22:35.817Z,99553.59
2022-10-30T13:25:25.923Z,99563.91
2022-10-30T13:28:21.017Z,99555.81
2022-10-30T13:30:58.709Z,99551.75
2022-10-30T13:33:40.038Z,99558.19
2022-10-30T13:36:33.417Z,99542.13
2022-10-30T13:39:24.208Z,99554.28
2022-10-30T13:42:19.262Z,99552.13
2022-10-30T13:45:07.981Z,99554.00
2022-10-30T13:48:08.916Z,99551.63
2022-10-30T13:50:47.687Z,99553.00
2022-10-30T13:53:24.090Z,99551.63
2022-10-30T13:55:51.857Z,99537.94
2022-10-30T13:58:33.516Z,99558.06
2022-10-30T14:01:21.616Z,99543.03
2022-10-30T14:03:51.510Z,99550.63
2022-10-30T14:06:18.112Z,99543.69
2022-10-30T14:09:27.088Z,99546.56
2022-10-30T14:11:55.504Z,99542.66
2022-10-30T14:14:32.383Z,99543.53
2022-10-30T14:17:16.839Z,99536.75
2022-10-30T14:20:10.590Z,99558.25
2022-10-30T14:22:40.632Z,99530.19
2022-10-30T14:25:15.353Z,99545.56
2022-10-30T14:27:42.784Z,99551.81
2022-10-30T14:30:20.225Z,99553.19
2022-10-30T14:32:53.639Z,99550.59
2022-10-30T14:35:36.291Z,99548.09
2022-10-30T14:38:09.136Z,99553.34
2022-10-30T14:40:53.967Z,99543.50
2022-10-30T14:43:32.894Z,99538.78
2022-10-30T14:46:04.154Z,99553.31
2022-10-30T14:48:38.745Z,99548.22
2022-10-30T14:51:25.161Z,99549.91
2022-10-30T14:54:18.167Z,99552.13
2022-10-30T14:56:50.130Z,99545.00
2022-10-30T14:59:16.879Z,99542.78
2022-10-30T15:02:29.073Z,99536.25
2022-10-30T15:05:17.837Z,99545.22
2022-10-30T15:07:53.553Z,99504.25
2022-10-30T15:10:34.315Z,99538.97
2022-10-30T15:13:24.216Z,99544.81
2022-10-30T15:16:01.248Z,99534.47
2022-10-30T15:18:30.790Z,99542.66
2022-10-30T15:21:01.352Z,99532.81
2022-10-30T15:23:30.835Z,99534.25
2022-10-30T15:26:09.155Z,99531.66
2022-10-30T15:28:38.279Z,99532.75
2022-10-30T15:31:20.153Z,99533.84
2022-10-30T15:33:47.366Z,99527.75
2022-10-30T15:36:23.722Z,99529.28
2022-10-30T15:39:12.083Z,99544.91
2022-10-30T15:41:50.800Z,99546.38
2022-10-30T15:44:30.373Z,99540.34
2022-10-30T15:47:03.752Z,99540.50
2022-10-30T15:49:40.772Z,99537.59
2022-10-30T15:52:23.300Z,99545.84
2022-10-30T15:55:17.396Z,99544.25
2022-10-30T15:58:03.280Z,99545.16
2022-10-30T16:00:34.815Z,99542.78
2022-10-30T16:03:13.911Z,99544.06
2022-10-30T16:05:41.287Z,99542.25
2022-10-30T16:08:24.323Z,99532.84
2022-10-30T16:10:55.853Z,99544.03
2022-10-30T16:13:28.196Z,99543.34
2022-10-30T16:15:55.227Z,99548.31
2022-10-30T16:18:25.599Z,99550.00
2022-10-30T16:20:58.567Z,99534.38
2022-10-30T16:23:25.741Z,99552.19
2022-10-30T16:25:57.698Z,99542.41
2022-10-30T16:28:25.990Z,99549.44
2022-10-30T16:30:53.791Z,99549.72
2022-10-30T16:33:26.564Z,99554.66
2022-10-30T16:35:55.798Z,99533.72
2022-10-30T16:38:25.101Z,99540.22
2022-10-30T16:40:52.922Z,99541.91
2022-10-30T16:43:31.742Z,99547.13
2022-10-30T16:46:25.194Z,99525.00
2022-10-30T16:48:58.528Z,99547.16
2022-10-30T16:51:25.909Z,99545.47
2022-10-30T16:53:53.965Z,99558.66
2022-10-30T16:56:29.122Z,99556.56
2022-10-30T16:59:08.567Z,99556.13
2022-10-30T17:01:36.404Z,99554.13
2022-10-30T17:04:05.094Z,99552.97
2022-10-30T17:06:41.262Z,99553.53
2022-10-30T17:09:30.813Z,99555.81
2022-10-30T17:12:11.795Z,99555.13
2022-10-30T17:14:56.693Z,99554.28
2022-10-30T17:17:36.194Z,99557.47
2022-10-30T17:20:32.822Z,99554.78
2022-10-30T17:23:26.529Z,99551.75
2022-10-30T17:25:56.393Z,99550.81
2022-10-30T17:28:27.907Z,99567.91
2022-10-30T17:30:55.514Z,99565.91
2022-10-30T17:33:36.951Z,99569.38
2022-10-30T17:36:06.128Z,99571.16
2022-10-30T17:38:33.830Z,99561.34
2022-10-30T17:41:02.856Z,99571.56
2022-10-30T17:43:34.503Z,99572.72
2022-10-30T17:46:01.731Z,99554.38
2022-10-30T17:48:29.953Z,99570.16
2022-10-30T17:50:57.153Z,99564.63
2022-10-30T17:53:27.389Z,99577.66
2022-10-30T17:56:12.227Z,99578.38
2022-10-30T17:58:39.215Z,99573.00
2022-10-30T18:01:06.543Z,99572.72
2022-10-30T18:03:33.462Z,99568.72
2022-10-30T18:06:03.003Z,99579.56
2022-10-30T18:08:30.078Z,99569.25
2022-10-30T18:10:57.084Z,99571.22
2022-10-30T18:13:24.425Z,99565.72
2022-10-30T18:15:58.863Z,99574.91
2022-10-30T18:18:26.166Z,99566.28
2022-10-30T18:20:53.062Z,99567.13
2022-10-30T18:23:51.794Z,99559.25
2022-10-30T18:26:25.195Z,99561.72
2022-10-30T18:28:53.316Z,99564.69
2022-10-30T18:31:24.510Z,99571.50
2022-10-30T18:33:52.704Z,99573.75
2022-10-30T18:36:27.586Z,99565.81
2022-10-30T18:38:56.632Z,99566.25
2022-10-30T18:41:36.407Z,99571.78
2022-10-30T18:44:04.296Z,99559.91
2022-10-30T18:46:33.625Z,99560.75
2022-10-30T18:49:02.604Z,99569.69
2022-10-30T18:51:30.924Z,99568.97
2022-10-30T18:54:01.739Z,99570.72
2022-10-30T18:56:33.101Z,99559.53
2022-10-30T18:59:02.561Z,99563.94
2022-10-30T19:01:35.989Z,99562.09
2022-10-30T19:04:04.817Z,99575.38
2022-10-30T19:06:34.863Z,99561.53
2022-10-30T19:09:02.840Z,99562.38
2022-10-30T19:11:31.733Z,99556.72
2022-10-30T19:13:59.641Z,99559.13
2022-10-30T19:16:27.283Z,99567.28
2022-10-30T19:18:55.013Z,99573.22
2022-10-30T19:21:26.715Z,99566.84
2022-10-30T19:23:55.000Z,99558.38
2022-10-30T19:26:22.526Z,99563.16
2022-10-30T19:28:51.233Z,99552.47
2022-10-30T19:31:19.951Z,99558.34
2022-10-30T19:33:51.411Z,99561.44
2022-10-30T19:36:36.798Z,99562.72
2022-10-30T19:39:13.476Z,99556.94
2022-10-30T19:41:41.740Z,99566.53
2022-10-30T19:44:09.846Z,99543.06
2022-10-30T19:46:37.503Z,99558.91
2022-10-30T19:49:23.253Z,99561.44
2022-10-30T19:51:50.184Z,99547.59
2022-10-30T19:54:17.634Z,99559.78
2022-10-30T19:56:45.371Z,99565.44
2022-10-30T19:59:15.261Z,99564.44
2022-10-30T20:01:44.289Z,99568.72
2022-10-30T20:04:14.148Z,99563.59
2022-10-30T20:06:41.781Z,99560.69
2022-10-30T20:09:13.075Z,99557.41
2022-10-30T20:11:40.391Z,99552.03
2022-10-30T20:14:07.820Z,99557.28
2022-10-30T20:16:35.018Z,99569.03
2022-10-30T20:19:02.329Z,99559.13
2022-10-30T20:21:31.556Z,99568.16
2022-10-30T20:23:58.530Z,99550.78
2022-10-30T20:26:29.352Z,99575.94
2022-10-30T20:28:57.362Z,99566.88
2022-10-30T20:31:24.540Z,99573.53
2022-10-30T20:33:51.980Z,99581.75
2022-10-30T20:36:19.032Z,99573.56
2022-10-30T20:38:46.241Z,99589.50
2022-10-30T20:41:29.722Z,99594.03
2022-10-30T20:43:57.136Z,99595.47
2022-10-30T20:46:24.206Z,99586.13
2022-10-30T20:48:51.375Z,99583.28
2022-10-30T20:51:18.533Z,99589.06
2022-10-30T20:53:45.864Z,99591.81
2022-10-30T20:56:13.310Z,99566.88
2022-10-30T20:58:40.676Z,99596.63
2022-10-30T21:01:07.595Z,99594.91
2022-10-30T21:03:34.373Z,99591.75
2022-10-30T21:06:02.446Z,99584.59
2022-10-30T21:08:34.587Z,99597.47
2022-10-30T21:11:04.245Z,99597.75
2022-10-30T21:13:33.521Z,99605.09
2022-10-30T21:16:05.747Z,99610.47
2022-10-30T21:18:33.047Z,99610.56
2022-10-30T21:21:04.906Z,99610.84
2022-10-30T21:23:32.241Z,99588.13
2022-10-30T21:26:04.834Z,99616.13
2022-10-30T21:28:31.796Z,99599.16
2022-10-30T21:31:03.574Z,99606.94
2022-10-30T21:33:32.081Z,99599.16
2022-10-30T21:36:12.403Z,99600.97
2022-10-30T21:38:44.558Z,99606.63
2022-10-30T21:41:13.496Z,99602.84
2022-10-30T21:43:40.341Z,99602.69
2022-10-30T21:46:12.577Z,99602.28
2022-10-30T21:48:39.732Z,99602.69
2022-10-30T21:51:15.955Z,99599.00
2022-10-30T21:53:43.233Z,99600.84
2022-10-30T21:56:13.854Z,99609.34
2022-10-30T21:58:40.736Z,99606.50
2022-10-30T22:01:07.710Z,99599.44
2022-10-30T22:03:34.492Z,99600.56
2022-10-30T22:06:06.186Z,99605.25
2022-10-30T22:08:32.985Z,99606.75
2022-10-30T22:11:08.818Z,99607.75
2022-10-30T22:13:36.749Z,99600.25
2022-10-30T22:16:05.837Z,99602.09
2022-10-30T22:18:33.659Z,99602.25
2022-10-30T22:21:08.511Z,99606.63
2022-10-30T22:23:37.131Z,99602.69
2022-10-30T22:26:06.160Z,99599.72
2022-10-30T22:28:33.968Z,99608.34
2022-10-30T22:31:10.142Z,99613.41
2022-10-30T22:33:37.682Z,99605.06
2022-10-30T22:36:13.557Z,99614.28
2022-10-30T22:38:40.397Z,99617.38
2022-10-30T22:41:12.567Z,99612.72
2022-10-30T22:43:40.443Z,99621.09
2022-10-30T22:46:07.714Z,99587.00
2022-10-30T22:48:34.484Z,99595.19
2022-10-30T22:51:04.083Z,99608.31
2022-10-30T22:53:31.533Z,99617.78
2022-10-30T22:55:58.313Z,99607.91
2022-10-30T22:58:30.197Z,99622.47
2022-10-30T23:01:14.968Z,99620.50
2022-10-30T23:03:42.640Z,99627.72
2022-10-30T23:06:11.973Z,99621.19
2022-10-30T23:08:38.925Z,99617.38
2022-10-30T23:11:06.980Z,99625.72
2022-10-30T23:13:35.213Z,99626.84
2022-10-30T23:16:04.207Z,99629.94
2022-10-30T23:18:32.154Z,99620.34
2022-10-30T23:21:05.507Z,99629.13
2022-10-30T23:23:36.245Z,99625.16
2022-10-30T23:26:19.396Z,99625.56
2022-10-30T23:28:47.682Z,99635.06
2022-10-30T23:31:20.015Z,99629.28
2022-10-30T23:33:48.721Z,99619.34
2022-10-30T23:36:16.471Z,99629.25
2022-10-30T23:38:43.277Z,99638.31
2022-10-30T23:41:10.525Z,99620.22
2022-10-30T23:43:37.281Z,99630.53
2022-10-30T23:46:04.073Z,99624.47
2022-10-30T23:48:30.787Z,99618.09
2022-10-30T23:50:57.528Z,99625.44
2022-10-30T23:53:24.260Z,99629.94
2022-10-30T23:55:53.291Z,99637.88
2022-10-30T23:58:21.116Z,99636.88
